Alum Bank, PA (15521)

1:45 AM EST on February 27, 2015 (GMT -0500)
Claysburg (Near Queen,PA) | Change Station
CLOSE
Current Station
Personal Weather Station
Location: Claysburg, PA
Elevation: 1240 ft
Nearby Weather Stations

Elev 1240 ft 40.26 °N, 78.49 °W | Updated 52 seconds ago

Overcast
Overcast
17.7 °F
Feels Like 18 °F
N
1.0
Wind Variable Wind from East
Gusts 4.0 mph

Today
High -- | Low -- °F
--% Chance of Precip.
Yesterday
High -- | Low -- °F
Precip. -- in
6:51 AM 6:03 PM
Waxing Gibbous, 66% visible
Pressure 30.08 in
Visibility 2.0 miles
Clouds Mostly Cloudy 1500 ft
Overcast 9000 ft
Windchill 18 °F
Dew Point 10 °F
Humidity 73%
Rainfall 0.00 in
Snow Depth Not available.
UV 0 out of 12
Pollen .50 out of 12
Air Quality Not available.
Flu Activity Not available.
SPECI KJST 270633Z AUTO 30010KT 2SM -SN BR BKN015 OVC090 M13/M16 A3008 RMK AO2 P0000 T11331156

More Conditions Fewer Conditions

Pressure 30.08 in
Visibility 2.0 miles
Clouds Mostly Cloudy 1500 ft
Overcast 9000 ft
Windchill 18 °F
Dew Point 10 °F
Humidity 73%
Rainfall 0.00 in
Snow Depth Not available.
UV 0 out of 12
Pollen .50 out of 12
Air Quality Not available.
Flu Activity Not available.
SPECI KJST 270633Z AUTO 30010KT 2SM -SN BR BKN015 OVC090 M13/M16 A3008 RMK AO2 P0000 T11331156

More Conditions Fewer Conditions

10-Day Weather Forecast

Almanac

Astronomy

Feb. 27, 2015 Rise Set
Actual Time
Civil Twilight
Nautical Twilight
Astronomical Twilight
Moon
Length of Visible Light
Length of Day
Tomorrow will be .
, % of the Moon is Illuminated

Today's Extremes

State Highs State Lows

Community

WunderPhotos

Upload Photos

1,800,646 photos uploaded!

WunderBlogs® & News

Nearby

Air Quality

  Air Quality AQ Index Pollutant
Not available.

Snow Depth

Station Depth Elevation

Earthquake Activity

City Distance Mag. Time & Date
Minimum magnitude displayed is 2.5.

Coastal Water Temperatures

Place Temperature

Nearby Weather Stations